sensor_id;sensor_type;location;lat;lon;timestamp;pressure;altitude;pressure_sealevel;temperature;humidity
71964;BME280;59834;52.124;5.422;2023-07-29T00:02:16;100745.94;;;17.37;96.53
71964;BME280;59834;52.124;5.422;2023-07-29T00:04:43;100745.81;;;17.38;96.09
71964;BME280;59834;52.124;5.422;2023-07-29T00:07:10;100747.75;;;17.36;95.93
71964;BME280;59834;52.124;5.422;2023-07-29T00:09:37;100742.63;;;17.35;96.11
71964;BME280;59834;52.124;5.422;2023-07-29T00:12:04;100735.09;;;17.30;96.21
71964;BME280;59834;52.124;5.422;2023-07-29T00:14:31;100732.44;;;17.30;96.46
71964;BME280;59834;52.124;5.422;2023-07-29T00:16:58;100728.16;;;17.29;96.12
71964;BME280;59834;52.124;5.422;2023-07-29T00:19:24;100729.41;;;17.25;96.27
71964;BME280;59834;52.124;5.422;2023-07-29T00:21:51;100724.69;;;17.19;96.26
71964;BME280;59834;52.124;5.422;2023-07-29T00:24:18;100723.31;;;17.15;96.69
71964;BME280;59834;52.124;5.422;2023-07-29T00:26:44;100719.31;;;17.11;96.81
71964;BME280;59834;52.124;5.422;2023-07-29T00:29:11;100711.66;;;17.08;96.86
71964;BME280;59834;52.124;5.422;2023-07-29T00:31:37;100714.41;;;17.06;97.25
71964;BME280;59834;52.124;5.422;2023-07-29T00:34:04;100703.84;;;17.06;97.43
71964;BME280;59834;52.124;5.422;2023-07-29T00:36:31;100691.03;;;17.11;96.77
71964;BME280;59834;52.124;5.422;2023-07-29T00:38:57;100688.09;;;17.14;96.60
71964;BME280;59834;52.124;5.422;2023-07-29T00:41:25;100698.53;;;17.16;96.66
71964;BME280;59834;52.124;5.422;2023-07-29T00:43:52;100723.06;;;17.08;97.39
71964;BME280;59834;52.124;5.422;2023-07-29T00:46:20;100719.88;;;17.05;97.89
71964;BME280;59834;52.124;5.422;2023-07-29T00:48:47;100722.22;;;17.08;98.29
71964;BME280;59834;52.124;5.422;2023-07-29T00:51:14;100727.50;;;17.08;98.39
71964;BME280;59834;52.124;5.422;2023-07-29T00:53:41;100723.59;;;17.12;98.59
71964;BME280;59834;52.124;5.422;2023-07-29T00:56:07;100714.41;;;17.16;98.52
71964;BME280;59834;52.124;5.422;2023-07-29T00:58:34;100698.41;;;17.17;97.91
71964;BME280;59834;52.124;5.422;2023-07-29T01:01:01;100700.22;;;17.17;97.31
71964;BME280;59834;52.124;5.422;2023-07-29T01:03:28;100699.66;;;17.13;97.76
71964;BME280;59834;52.124;5.422;2023-07-29T01:08:55;100698.00;;;17.03;98.50
71964;BME280;59834;52.124;5.422;2023-07-29T01:12:20;100697.47;;;16.99;97.77
71964;BME280;59834;52.124;5.422;2023-07-29T01:14:42;100703.31;;;16.93;98.23
71964;BME280;59834;52.124;5.422;2023-07-29T01:17:22;100708.59;;;16.83;99.77
71964;BME280;59834;52.124;5.422;2023-07-29T01:20:08;100707.22;;;16.79;99.61
71964;BME280;59834;52.124;5.422;2023-07-29T01:22:36;100703.03;;;16.77;100.00
71964;BME280;59834;52.124;5.422;2023-07-29T01:25:04;100707.75;;;16.73;100.00
71964;BME280;59834;52.124;5.422;2023-07-29T01:27:30;100698.88;;;16.74;100.00
71964;BME280;59834;52.124;5.422;2023-07-29T01:29:57;100709.44;;;16.74;100.00
71964;BME280;59834;52.124;5.422;2023-07-29T01:32:51;100709.44;;;16.74;100.00
71964;BME280;59834;52.124;5.422;2023-07-29T01:35:24;100706.78;;;16.74;100.00
71964;BME280;59834;52.124;5.422;2023-07-29T01:38:08;100706.69;;;16.76;100.00
71964;BME280;59834;52.124;5.422;2023-07-29T01:40:36;100703.03;;;16.77;100.00
71964;BME280;59834;52.124;5.422;2023-07-29T01:43:02;100704.16;;;16.74;100.00
71964;BME280;59834;52.124;5.422;2023-07-29T01:45:29;100701.78;;;16.71;100.00
71964;BME280;59834;52.124;5.422;2023-07-29T01:47:58;100695.13;;;16.67;100.00
71964;BME280;59834;52.124;5.422;2023-07-29T01:50:25;100698.03;;;16.64;100.00
71964;BME280;59834;52.124;5.422;2023-07-29T01:52:51;100688.56;;;16.61;100.00
71964;BME280;59834;52.124;5.422;2023-07-29T01:55:20;100689.41;;;16.62;100.00
71964;BME280;59834;52.124;5.422;2023-07-29T01:57:47;100684.56;;;16.67;100.00
71964;BME280;59834;52.124;5.422;2023-07-29T02:00:15;100683.97;;;16.73;100.00
71964;BME280;59834;52.124;5.422;2023-07-29T02:02:41;100684.81;;;16.73;100.00
71964;BME280;59834;52.124;5.422;2023-07-29T02:05:08;100689.56;;;16.70;100.00
71964;BME280;59834;52.124;5.422;2023-07-29T02:07:34;100676.19;;;16.71;100.00
71964;BME280;59834;52.124;5.422;2023-07-29T02:10:01;100685.78;;;16.72;100.00
71964;BME280;59834;52.124;5.422;2023-07-29T02:12:28;100675.09;;;16.74;100.00
71964;BME280;59834;52.124;5.422;2023-07-29T02:14:54;100678.16;;;16.79;100.00
71964;BME280;59834;52.124;5.422;2023-07-29T02:17:21;100675.50;;;16.79;100.00
71964;BME280;59834;52.124;5.422;2023-07-29T02:19:48;100674.56;;;16.80;100.00
71964;BME280;59834;52.124;5.422;2023-07-29T02:22:17;100663.28;;;16.78;100.00
71964;BME280;59834;52.124;5.422;2023-07-29T02:24:44;100668.84;;;16.75;100.00
71964;BME280;59834;52.124;5.422;2023-07-29T02:27:11;100674.38;;;16.72;100.00
71964;BME280;59834;52.124;5.422;2023-07-29T02:29:38;100674.09;;;16.65;100.00
71964;BME280;59834;52.124;5.422;2023-07-29T02:32:04;100672.19;;;16.58;100.00
71964;BME280;59834;52.124;5.422;2023-07-29T02:34:31;100665.50;;;16.54;100.00
71964;BME280;59834;52.124;5.422;2023-07-29T02:36:58;100672.72;;;16.52;100.00
71964;BME280;59834;52.124;5.422;2023-07-29T02:39:24;100673.16;;;16.47;100.00
71964;BME280;59834;52.124;5.422;2023-07-29T02:41:51;100672.59;;;16.43;100.00
71964;BME280;59834;52.124;5.422;2023-07-29T02:44:18;100663.81;;;16.43;100.00
71964;BME280;59834;52.124;5.422;2023-07-29T02:46:45;100662.16;;;16.42;100.00
71964;BME280;59834;52.124;5.422;2023-07-29T02:49:12;100671.91;;;16.41;100.00
71964;BME280;59834;52.124;5.422;2023-07-29T02:51:39;100665.22;;;16.37;100.00
71964;BME280;59834;52.124;5.422;2023-07-29T02:54:05;100665.50;;;16.34;100.00
71964;BME280;59834;52.124;5.422;2023-07-29T02:56:32;100658.56;;;16.33;100.00
71964;BME280;59834;52.124;5.422;2023-07-29T02:58:59;100658.56;;;16.33;100.00
71964;BME280;59834;52.124;5.422;2023-07-29T03:01:26;100658.56;;;16.33;100.00
71964;BME280;59834;52.124;5.422;2023-07-29T03:03:53;100655.91;;;16.33;100.00
71964;BME280;59834;52.124;5.422;2023-07-29T03:06:20;100659.66;;;16.31;100.00
71964;BME280;59834;52.124;5.422;2023-07-29T03:08:46;100660.50;;;16.31;100.00
71964;BME280;59834;52.124;5.422;2023-07-29T03:11:14;100660.50;;;16.31;100.00
71964;BME280;59834;52.124;5.422;2023-07-29T03:13:42;100650.06;;;16.30;100.00
71964;BME280;59834;52.124;5.422;2023-07-29T03:16:16;100644.22;;;16.26;100.00
71964;BME280;59834;52.124;5.422;2023-07-29T03:18:44;100641.19;;;16.21;100.00
71964;BME280;59834;52.124;5.422;2023-07-29T03:21:11;100645.75;;;16.19;100.00
71964;BME280;59834;52.124;5.422;2023-07-29T03:23:38;100647.84;;;16.15;100.00
71964;BME280;59834;52.124;5.422;2023-07-29T03:26:05;100642.72;;;16.14;100.00
71964;BME280;59834;52.124;5.422;2023-07-29T03:28:39;100646.28;;;16.13;100.00
71964;BME280;59834;52.124;5.422;2023-07-29T03:31:05;100653.53;;;16.11;100.00
71964;BME280;59834;52.124;5.422;2023-07-29T03:33:33;100649.25;;;16.10;100.00
71964;BME280;59834;52.124;5.422;2023-07-29T03:36:00;100650.19;;;16.09;100.00
71964;BME280;59834;52.124;5.422;2023-07-29T03:38:26;100650.19;;;16.09;100.00
71964;BME280;59834;52.124;5.422;2023-07-29T03:40:53;100644.09;;;16.08;100.00
71964;BME280;59834;52.124;5.422;2023-07-29T03:43:21;100644.22;;;16.07;100.00
71964;BME280;59834;52.124;5.422;2023-07-29T03:45:47;100648.81;;;16.05;100.00
71964;BME280;59834;52.124;5.422;2023-07-29T03:48:14;100644.34;;;16.05;100.00
71964;BME280;59834;52.124;5.422;2023-07-29T03:50:41;100648.81;;;16.05;100.00
71964;BME280;59834;52.124;5.422;2023-07-29T03:53:07;100655.06;;;16.03;100.00
71964;BME280;59834;52.124;5.422;2023-07-29T03:55:36;100652.44;;;16.03;100.00
71964;BME280;59834;52.124;5.422;2023-07-29T03:58:03;100658.66;;;16.02;100.00
71964;BME280;59834;52.124;5.422;2023-07-29T04:00:29;100662.16;;;16.03;100.00
71964;BME280;59834;52.124;5.422;2023-07-29T04:02:57;100668.38;;;16.02;100.00
71964;BME280;59834;52.124;5.422;2023-07-29T04:05:24;100660.75;;;15.99;100.00
71964;BME280;59834;52.124;5.422;2023-07-29T04:07:51;100652.97;;;15.97;100.00
71964;BME280;59834;52.124;5.422;2023-07-29T04:10:20;100652.13;;;15.97;100.00
71964;BME280;59834;52.124;5.422;2023-07-29T04:12:46;100667.16;;;15.96;100.00
71964;BME280;59834;52.124;5.422;2023-07-29T04:15:13;100667.16;;;15.96;100.00
71964;BME280;59834;52.124;5.422;2023-07-29T04:17:40;100656.59;;;15.96;100.00
71964;BME280;59834;52.124;5.422;2023-07-29T04:20:07;100652.00;;;15.98;100.00
71964;BME280;59834;52.124;5.422;2023-07-29T04:22:34;100650.44;;;15.96;100.00
71964;BME280;59834;52.124;5.422;2023-07-29T04:25:01;100638.78;;;15.98;100.00
71964;BME280;59834;52.124;5.422;2023-07-29T04:27:27;100645.06;;;15.97;100.00
71964;BME280;59834;52.124;5.422;2023-07-29T04:29:54;100646.59;;;16.00;100.00
71964;BME280;59834;52.124;5.422;2023-07-29T04:32:20;100648.09;;;16.02;100.00
71964;BME280;59834;52.124;5.422;2023-07-29T04:34:48;100652.97;;;16.07;100.00
71964;BME280;59834;52.124;5.422;2023-07-29T04:37:14;100652.72;;;16.10;100.00
71964;BME280;59834;52.124;5.422;2023-07-29T04:39:41;100657.16;;;16.10;100.00
71964;BME280;59834;52.124;5.422;2023-07-29T04:42:07;100650.91;;;16.11;100.00
71964;BME280;59834;52.124;5.422;2023-07-29T04:44:34;100653.38;;;16.12;100.00
71964;BME280;59834;52.124;5.422;2023-07-29T04:47:02;100655.19;;;16.12;100.00
71964;BME280;59834;52.124;5.422;2023-07-29T04:49:28;100654.22;;;16.13;100.00
71964;BME280;59834;52.124;5.422;2023-07-29T04:51:55;100656.03;;;16.12;100.00
71964;BME280;59834;52.124;5.422;2023-07-29T04:54:22;100657.72;;;16.13;100.00
71964;BME280;59834;52.124;5.422;2023-07-29T04:56:48;100657.00;;;16.11;100.00
71964;BME280;59834;52.124;5.422;2023-07-29T04:59:15;100659.81;;;16.10;100.00
71964;BME280;59834;52.124;5.422;2023-07-29T05:01:42;100657.44;;;16.07;100.00
71964;BME280;59834;52.124;5.422;2023-07-29T05:04:10;100662.00;;;16.05;100.00
71964;BME280;59834;52.124;5.422;2023-07-29T05:06:36;100664.38;;;16.08;100.00
71964;BME280;59834;52.124;5.422;2023-07-29T05:09:16;100665.63;;;16.13;100.00
71964;BME280;59834;52.124;5.422;2023-07-29T05:11:44;100673.53;;;16.23;100.00
71964;BME280;59834;52.124;5.422;2023-07-29T05:14:17;100671.78;;;16.33;100.00
71964;BME280;59834;52.124;5.422;2023-07-29T05:16:44;100684.41;;;16.39;99.55
71964;BME280;59834;52.124;5.422;2023-07-29T05:19:11;100670.25;;;16.40;99.89
71964;BME280;59834;52.124;5.422;2023-07-29T05:21:38;100673.84;;;16.39;99.51
71964;BME280;59834;52.124;5.422;2023-07-29T05:24:05;100680.81;;;16.40;99.22
71964;BME280;59834;52.124;5.422;2023-07-29T05:26:32;100678.84;;;16.42;98.97
71964;BME280;59834;52.124;5.422;2023-07-29T05:28:59;100679.00;;;16.50;99.13
71964;BME280;59834;52.124;5.422;2023-07-29T05:31:25;100676.06;;;16.54;98.34
71964;BME280;59834;52.124;5.422;2023-07-29T05:33:52;100674.94;;;16.56;98.71
71964;BME280;59834;52.124;5.422;2023-07-29T05:36:19;100672.56;;;16.63;97.89
71964;BME280;59834;52.124;5.422;2023-07-29T05:38:46;100682.31;;;16.72;98.43
71964;BME280;59834;52.124;5.422;2023-07-29T05:41:12;100688.03;;;16.87;98.07
71964;BME280;59834;52.124;5.422;2023-07-29T05:43:39;100688.00;;;16.96;97.46
71964;BME280;59834;52.124;5.422;2023-07-29T05:46:06;100693.28;;;16.96;96.90
71964;BME280;59834;52.124;5.422;2023-07-29T05:48:33;100697.56;;;17.17;96.21
71964;BME280;59834;52.124;5.422;2023-07-29T05:51:00;100692.06;;;17.38;95.50
71964;BME280;59834;52.124;5.422;2023-07-29T05:53:26;100690.09;;;17.40;93.95
71964;BME280;59834;52.124;5.422;2023-07-29T05:55:53;100693.75;;;17.29;94.50
71964;BME280;59834;52.124;5.422;2023-07-29T05:58:19;100694.84;;;17.36;95.00
71964;BME280;59834;52.124;5.422;2023-07-29T06:00:47;100693.00;;;17.47;94.57
71964;BME280;59834;52.124;5.422;2023-07-29T06:03:13;100691.91;;;17.39;95.24
71964;BME280;59834;52.124;5.422;2023-07-29T06:05:41;100694.28;;;17.42;95.18
71964;BME280;59834;52.124;5.422;2023-07-29T06:08:07;100690.63;;;17.43;94.57
71964;BME280;59834;52.124;5.422;2023-07-29T06:10:34;100695.94;;;17.43;95.04
71964;BME280;59834;52.124;5.422;2023-07-29T06:13:01;100685.59;;;17.50;94.81
71964;BME280;59834;52.124;5.422;2023-07-29T06:15:28;100688.63;;;17.65;94.41
71964;BME280;59834;52.124;5.422;2023-07-29T06:17:54;100689.50;;;18.11;93.00
71964;BME280;59834;52.124;5.422;2023-07-29T06:20:23;100679.84;;;19.34;87.07
71964;BME280;59834;52.124;5.422;2023-07-29T06:22:50;100683.63;;;19.57;83.88
71964;BME280;59834;52.124;5.422;2023-07-29T06:25:19;100673.59;;;20.52;81.95
71964;BME280;59834;52.124;5.422;2023-07-29T06:27:47;100680.53;;;21.10;76.56
71964;BME280;59834;52.124;5.422;2023-07-29T06:30:15;100676.41;;;20.51;78.54
71964;BME280;59834;52.124;5.422;2023-07-29T06:32:42;100684.09;;;19.95;79.79
71964;BME280;59834;52.124;5.422;2023-07-29T06:35:09;100685.28;;;19.58;82.43
71964;BME280;59834;52.124;5.422;2023-07-29T06:37:36;100695.44;;;19.28;83.98
71964;BME280;59834;52.124;5.422;2023-07-29T06:40:03;100681.78;;;19.23;84.58
71964;BME280;59834;52.124;5.422;2023-07-29T06:42:31;100697.50;;;19.43;85.13
71964;BME280;59834;52.124;5.422;2023-07-29T06:44:58;100685.09;;;19.86;82.97
71964;BME280;59834;52.124;5.422;2023-07-29T06:47:24;100685.56;;;19.81;82.19
71964;BME280;59834;52.124;5.422;2023-07-29T06:49:51;100692.78;;;19.28;84.33
71964;BME280;59834;52.124;5.422;2023-07-29T06:52:18;100694.91;;;18.99;85.44
71964;BME280;59834;52.124;5.422;2023-07-29T06:54:44;100694.00;;;19.42;85.43
71964;BME280;59834;52.124;5.422;2023-07-29T06:57:11;100690.25;;;19.53;84.95
71964;BME280;59834;52.124;5.422;2023-07-29T06:59:38;100692.91;;;19.53;84.49
71964;BME280;59834;52.124;5.422;2023-07-29T07:02:06;100697.19;;;19.20;85.28
71964;BME280;59834;52.124;5.422;2023-07-29T07:04:34;100695.53;;;18.93;86.70
71964;BME280;59834;52.124;5.422;2023-07-29T07:07:01;100699.78;;;18.68;88.82
71964;BME280;59834;52.124;5.422;2023-07-29T07:09:27;100690.84;;;18.87;88.27
71964;BME280;59834;52.124;5.422;2023-07-29T07:11:54;100699.53;;;18.97;87.53
71964;BME280;59834;52.124;5.422;2023-07-29T07:14:20;100697.06;;;18.77;88.05
71964;BME280;59834;52.124;5.422;2023-07-29T07:16:47;100706.06;;;18.67;89.06
71964;BME280;59834;52.124;5.422;2023-07-29T07:19:14;100704.03;;;18.60;89.19
71964;BME280;59834;52.124;5.422;2023-07-29T07:21:40;100700.31;;;18.53;89.83
71964;BME280;59834;52.124;5.422;2023-07-29T07:24:07;100707.91;;;18.48;89.96
71964;BME280;59834;52.124;5.422;2023-07-29T07:26:34;100709.63;;;18.40;90.60
71964;BME280;59834;52.124;5.422;2023-07-29T07:29:01;100707.59;;;18.33;91.39
71964;BME280;59834;52.124;5.422;2023-07-29T07:31:28;100712.06;;;18.33;91.20
71964;BME280;59834;52.124;5.422;2023-07-29T07:33:54;100714.94;;;18.40;91.51
71964;BME280;59834;52.124;5.422;2023-07-29T07:36:22;100717.50;;;18.49;91.66
71964;BME280;59834;52.124;5.422;2023-07-29T07:38:50;100715.69;;;18.68;91.45
71964;BME280;59834;52.124;5.422;2023-07-29T07:41:17;100718.50;;;18.66;90.37
71964;BME280;59834;52.124;5.422;2023-07-29T07:43:46;100720.31;;;18.66;92.02
71964;BME280;59834;52.124;5.422;2023-07-29T07:46:15;100719.19;;;18.68;90.61
71964;BME280;59834;52.124;5.422;2023-07-29T07:48:42;100707.97;;;18.74;89.93
71964;BME280;59834;52.124;5.422;2023-07-29T07:51:13;100709.94;;;18.90;90.23
71964;BME280;59834;52.124;5.422;2023-07-29T07:53:40;100708.63;;;19.20;88.78
71964;BME280;59834;52.124;5.422;2023-07-29T07:56:07;100708.13;;;19.43;87.08
71964;BME280;59834;52.124;5.422;2023-07-29T07:58:34;100707.44;;;19.41;86.46
71964;BME280;59834;52.124;5.422;2023-07-29T08:01:04;100712.41;;;19.36;86.89
71964;BME280;59834;52.124;5.422;2023-07-29T08:03:32;100720.81;;;19.31;86.54
71964;BME280;59834;52.124;5.422;2023-07-29T08:05:59;100724.88;;;19.17;88.14
71964;BME280;59834;52.124;5.422;2023-07-29T08:08:26;100719.25;;;19.20;87.60
71964;BME280;59834;52.124;5.422;2023-07-29T08:10:58;100715.69;;;19.38;88.20
71964;BME280;59834;52.124;5.422;2023-07-29T08:13:25;100711.16;;;19.90;84.63
71964;BME280;59834;52.124;5.422;2023-07-29T08:15:52;100718.69;;;20.11;84.06
71964;BME280;59834;52.124;5.422;2023-07-29T08:18:19;100712.72;;;20.17;84.28
71964;BME280;59834;52.124;5.422;2023-07-29T08:20:53;100715.94;;;20.29;82.51
71964;BME280;59834;52.124;5.422;2023-07-29T08:23:22;100712.78;;;20.50;81.65
71964;BME280;59834;52.124;5.422;2023-07-29T08:25:59;100704.66;;;20.52;81.58
71964;BME280;59834;52.124;5.422;2023-07-29T08:28:36;100706.81;;;20.89;81.40
71964;BME280;59834;52.124;5.422;2023-07-29T08:31:03;100710.97;;;20.75;78.96
71964;BME280;59834;52.124;5.422;2023-07-29T08:33:30;100712.94;;;20.48;79.91
71964;BME280;59834;52.124;5.422;2023-07-29T08:35:57;100714.19;;;20.12;81.11
71964;BME280;59834;52.124;5.422;2023-07-29T08:38:24;100719.63;;;19.86;82.38
71964;BME280;59834;52.124;5.422;2023-07-29T08:44:11;100717.31;;;19.57;83.20
71964;BME280;59834;52.124;5.422;2023-07-29T08:46:39;100714.81;;;19.55;84.64
71964;BME280;59834;52.124;5.422;2023-07-29T08:49:07;100709.16;;;19.58;84.82
71964;BME280;59834;52.124;5.422;2023-07-29T08:51:34;100714.16;;;19.61;83.32
71964;BME280;59834;52.124;5.422;2023-07-29T08:54:01;100722.34;;;19.68;83.32
71964;BME280;59834;52.124;5.422;2023-07-29T08:56:28;100717.22;;;19.66;82.40
71964;BME280;59834;52.124;5.422;2023-07-29T08:59:09;100717.91;;;19.76;83.22
71964;BME280;59834;52.124;5.422;2023-07-29T09:01:39;100709.94;;;19.76;81.34
71964;BME280;59834;52.124;5.422;2023-07-29T09:04:06;100713.09;;;19.72;80.98
71964;BME280;59834;52.124;5.422;2023-07-29T09:06:33;100720.59;;;19.85;81.64
71964;BME280;59834;52.124;5.422;2023-07-29T09:09:02;100724.09;;;19.85;81.57
71964;BME280;59834;52.124;5.422;2023-07-29T09:11:29;100723.03;;;19.70;82.50
71964;BME280;59834;52.124;5.422;2023-07-29T09:13:57;100730.06;;;19.79;83.07
71964;BME280;59834;52.124;5.422;2023-07-29T09:16:25;100723.41;;;20.50;81.42
71964;BME280;59834;52.124;5.422;2023-07-29T09:18:52;100713.47;;;20.93;77.50
71964;BME280;59834;52.124;5.422;2023-07-29T09:21:23;100715.63;;;20.81;77.90
71964;BME280;59834;52.124;5.422;2023-07-29T09:23:51;100722.13;;;20.70;77.80
71964;BME280;59834;52.124;5.422;2023-07-29T09:26:28;100717.31;;;20.66;78.46
71964;BME280;59834;52.124;5.422;2023-07-29T09:28:56;100718.97;;;20.83;78.05
71964;BME280;59834;52.124;5.422;2023-07-29T09:31:27;100716.47;;;20.90;78.18
71964;BME280;59834;52.124;5.422;2023-07-29T09:34:02;100716.47;;;20.74;77.88
71964;BME280;59834;52.124;5.422;2023-07-29T09:36:31;100713.97;;;20.64;77.39
71964;BME280;59834;52.124;5.422;2023-07-29T09:38:59;100715.09;;;20.37;78.21
71964;BME280;59834;52.124;5.422;2023-07-29T09:41:28;100718.75;;;20.36;79.54
71964;BME280;59834;52.124;5.422;2023-07-29T09:44:01;100716.75;;;20.38;78.75
71964;BME280;59834;52.124;5.422;2023-07-29T09:46:34;100720.47;;;20.61;77.86
71964;BME280;59834;52.124;5.422;2023-07-29T09:49:05;100718.47;;;20.80;77.00
71964;BME280;59834;52.124;5.422;2023-07-29T09:51:37;100711.16;;;20.74;76.92
71964;BME280;59834;52.124;5.422;2023-07-29T09:54:04;100714.66;;;20.58;76.92
71964;BME280;59834;52.124;5.422;2023-07-29T09:56:31;100722.88;;;20.30;79.30
71964;BME280;59834;52.124;5.422;2023-07-29T09:58:58;100730.44;;;20.00;81.02
71964;BME280;59834;52.124;5.422;2023-07-29T10:01:25;100723.22;;;19.76;82.56
71964;BME280;59834;52.124;5.422;2023-07-29T10:03:52;100746.00;;;19.53;85.24
71964;BME280;59834;52.124;5.422;2023-07-29T10:06:21;100735.09;;;19.38;88.39
71964;BME280;59834;52.124;5.422;2023-07-29T10:08:49;100734.06;;;19.31;89.80
71964;BME280;59834;52.124;5.422;2023-07-29T10:11:17;100737.03;;;19.28;90.70
71964;BME280;59834;52.124;5.422;2023-07-29T10:13:50;100734.38;;;19.28;91.76
71964;BME280;59834;52.124;5.422;2023-07-29T10:16:36;100728.63;;;19.33;93.46
71964;BME280;59834;52.124;5.422;2023-07-29T10:19:07;100737.34;;;19.51;92.84
71964;BME280;59834;52.124;5.422;2023-07-29T10:21:39;100734.81;;;19.67;92.19
71964;BME280;59834;52.124;5.422;2023-07-29T10:24:14;100729.53;;;19.75;91.45
71964;BME280;59834;52.124;5.422;2023-07-29T10:26:46;100741.66;;;19.78;91.04
71964;BME280;59834;52.124;5.422;2023-07-29T10:29:19;100745.41;;;19.67;91.01
71964;BME280;59834;52.124;5.422;2023-07-29T10:31:48;100745.88;;;19.63;92.29
71964;BME280;59834;52.124;5.422;2023-07-29T10:34:20;100748.69;;;19.61;93.07
71964;BME280;59834;52.124;5.422;2023-07-29T10:36:50;100749.41;;;19.63;92.15
71964;BME280;59834;52.124;5.422;2023-07-29T10:39:19;100746.50;;;19.83;93.30
71964;BME280;59834;52.124;5.422;2023-07-29T10:41:58;100749.09;;;20.09;93.09
71964;BME280;59834;52.124;5.422;2023-07-29T10:47:15;100750.75;;;20.18;92.68
71964;BME280;59834;52.124;5.422;2023-07-29T10:49:46;100743.28;;;20.21;92.41
71964;BME280;59834;52.124;5.422;2023-07-29T10:52:28;100737.00;;;20.22;91.85
71964;BME280;59834;52.124;5.422;2023-07-29T10:54:55;100731.69;;;20.22;92.83
71964;BME280;59834;52.124;5.422;2023-07-29T10:57:32;100734.94;;;20.08;92.32
71964;BME280;59834;52.124;5.422;2023-07-29T11:00:00;100737.91;;;19.97;94.18
71964;BME280;59834;52.124;5.422;2023-07-29T11:02:32;100739.44;;;19.99;94.06
71964;BME280;59834;52.124;5.422;2023-07-29T11:05:21;100743.91;;;20.07;93.93
71964;BME280;59834;52.124;5.422;2023-07-29T11:07:49;100742.31;;;20.22;93.06
71964;BME280;59834;52.124;5.422;2023-07-29T11:10:16;100748.81;;;20.36;92.03
71964;BME280;59834;52.124;5.422;2023-07-29T11:12:44;100749.97;;;20.42;89.83
71964;BME280;59834;52.124;5.422;2023-07-29T11:17:44;100749.28;;;20.32;89.51
71964;BME280;59834;52.124;5.422;2023-07-29T11:20:12;100746.81;;;20.30;90.82
71964;BME280;59834;52.124;5.422;2023-07-29T11:22:39;100753.44;;;20.26;87.80
71964;BME280;59834;52.124;5.422;2023-07-29T11:25:12;100756.75;;;20.28;89.21
71964;BME280;59834;52.124;5.422;2023-07-29T11:27:40;100752.25;;;20.12;89.76
71964;BME280;59834;52.124;5.422;2023-07-29T11:30:08;100754.06;;;20.12;90.46
71964;BME280;59834;52.124;5.422;2023-07-29T11:32:40;100757.69;;;20.02;89.68
71964;BME280;59834;52.124;5.422;2023-07-29T11:35:15;100739.88;;;19.95;91.49
71964;BME280;59834;52.124;5.422;2023-07-29T11:37:49;100751.81;;;19.83;92.07
71964;BME280;59834;52.124;5.422;2023-07-29T11:40:23;100753.84;;;19.63;90.88
71964;BME280;59834;52.124;5.422;2023-07-29T11:42:52;100751.13;;;19.54;92.96
71964;BME280;59834;52.124;5.422;2023-07-29T11:45:20;100751.00;;;19.56;91.72
71964;BME280;59834;52.124;5.422;2023-07-29T11:47:51;100753.13;;;19.52;91.75
71964;BME280;59834;52.124;5.422;2023-07-29T11:50:18;100752.66;;;19.57;91.79
71964;BME280;59834;52.124;5.422;2023-07-29T11:52:46;100756.50;;;19.63;92.45
71964;BME280;59834;52.124;5.422;2023-07-29T11:55:14;100742.97;;;19.74;92.93
71964;BME280;59834;52.124;5.422;2023-07-29T11:57:42;100757.63;;;19.86;93.29
71964;BME280;59834;52.124;5.422;2023-07-29T12:00:10;100756.81;;;19.86;93.04
71964;BME280;59834;52.124;5.422;2023-07-29T12:02:40;100755.81;;;19.95;92.21
71964;BME280;59834;52.124;5.422;2023-07-29T12:05:09;100756.63;;;20.30;93.01
71964;BME280;59834;52.124;5.422;2023-07-29T12:07:40;100752.03;;;20.56;92.05
71964;BME280;59834;52.124;5.422;2023-07-29T12:10:08;100755.03;;;21.02;90.79
71964;BME280;59834;52.124;5.422;2023-07-29T12:12:50;100747.88;;;21.44;87.71
71964;BME280;59834;52.124;5.422;2023-07-29T12:15:24;100751.66;;;21.49;86.24
71964;BME280;59834;52.124;5.422;2023-07-29T12:17:56;100740.38;;;21.39;84.75
71964;BME280;59834;52.124;5.422;2023-07-29T12:20:24;100739.69;;;21.45;86.38
71964;BME280;59834;52.124;5.422;2023-07-29T12:22:56;100741.78;;;21.66;86.62
71964;BME280;59834;52.124;5.422;2023-07-29T12:25:24;100739.25;;;21.81;86.25
71964;BME280;59834;52.124;5.422;2023-07-29T12:27:51;100742.69;;;21.50;85.70
71964;BME280;59834;52.124;5.422;2023-07-29T12:30:22;100736.38;;;21.27;85.77
71964;BME280;59834;52.124;5.422;2023-07-29T12:32:49;100726.78;;;21.09;84.93
71964;BME280;59834;52.124;5.422;2023-07-29T12:35:16;100734.91;;;20.91;85.68
71964;BME280;59834;52.124;5.422;2023-07-29T12:37:43;100729.63;;;21.00;85.85
71964;BME280;59834;52.124;5.422;2023-07-29T12:40:25;100738.38;;;21.25;85.12
71964;BME280;59834;52.124;5.422;2023-07-29T12:42:53;100734.03;;;21.48;84.42
71964;BME280;59834;52.124;5.422;2023-07-29T12:45:20;100730.34;;;21.49;84.70
71964;BME280;59834;52.124;5.422;2023-07-29T12:47:49;100730.50;;;21.56;84.65
71964;BME280;59834;52.124;5.422;2023-07-29T12:50:16;100744.00;;;21.54;83.29
71964;BME280;59834;52.124;5.422;2023-07-29T12:52:43;100740.50;;;21.46;83.49
71964;BME280;59834;52.124;5.422;2023-07-29T12:55:09;100747.34;;;21.32;84.30
71964;BME280;59834;52.124;5.422;2023-07-29T12:57:41;100743.38;;;21.44;84.27
71964;BME280;59834;52.124;5.422;2023-07-29T13:00:09;100742.28;;;21.70;82.46
71964;BME280;59834;52.124;5.422;2023-07-29T13:02:36;100742.94;;;21.72;82.39
71964;BME280;59834;52.124;5.422;2023-07-29T13:05:03;100738.78;;;22.08;81.81
71964;BME280;59834;52.124;5.422;2023-07-29T13:07:30;100734.03;;;22.50;79.47